Time,TemperatureF,DewpointF,PressureIn,WindDirection,WindDirectionDegrees,WindSpeedMPH,WindSpeedGustMPH,Humidity,HourlyPrecipIn,Conditions,Clouds,dailyrainin,SolarRadiationWatts/m^2,SoftwareType,DateUTC
2013-01-15 00:00:00,11.0,2.0,-100.00,WSW,247,4.0,-999.0,67,-99.99,,,-99.99,0.000000,,2013-01-15 05:00:00,
2013-01-15 00:42:00,11.0,2.0,-100.00,WSW,247,4.0,-999.0,67,-99.99,,,-99.99,0.000000,,2013-01-15 05:42:00,
2013-01-15 00:53:00,11.0,2.0,-100.00,WSW,247,4.0,-999.0,67,-99.99,,,-99.99,0.000000,,2013-01-15 05:53:00,
2013-01-15 01:00:00,10.0,0.0,-100.00,West,270,4.0,-999.0,64,-99.99,,,-99.99,0.000000,,2013-01-15 06:00:00,
2013-01-15 01:43:00,10.0,0.0,-100.00,West,270,4.0,-999.0,64,-99.99,,,-99.99,0.000000,,2013-01-15 06:43:00,
2013-01-15 01:53:00,10.0,0.0,-100.00,West,270,4.0,-999.0,64,-99.99,,,-99.99,0.000000,,2013-01-15 06:53:00,
2013-01-15 02:00:00,9.0,-1.0,-100.00,West,270,4.0,-999.0,64,-99.99,,,-99.99,0.000000,,2013-01-15 07:00:00,
2013-01-15 02:43:00,9.0,-1.0,-100.00,West,270,4.0,-999.0,64,-99.99,,,-99.99,0.000000,,2013-01-15 07:43:00,
2013-01-15 02:53:00,9.0,-1.0,-100.00,West,270,4.0,-999.0,64,-99.99,,,-99.99,0.000000,,2013-01-15 07:53:00,
2013-01-15 04:00:00,7.0,0.0,-100.00,SW,225,5.0,-999.0,71,-99.99,,,-99.99,0.000000,,2013-01-15 09:00:00,
2013-01-15 04:43:00,7.0,0.0,-100.00,SW,225,5.0,-999.0,71,-99.99,,,-99.99,0.000000,,2013-01-15 09:43:00,
2013-01-15 04:52:00,7.0,0.0,-100.00,SW,225,5.0,-999.0,71,-99.99,,,-99.99,0.000000,,2013-01-15 09:52:00,
2013-01-15 05:00:00,7.0,0.0,-100.00,WSW,247,5.0,-999.0,71,-99.99,,,-99.99,0.000000,,2013-01-15 10:00:00,
2013-01-15 05:42:00,7.0,0.0,-100.00,WSW,247,5.0,-999.0,71,-99.99,,,-99.99,0.000000,,2013-01-15 10:42:00,
2013-01-15 05:52:00,7.0,0.0,-100.00,WSW,247,5.0,-999.0,71,-99.99,,,-99.99,0.000000,,2013-01-15 10:52:00,
2013-01-15 06:00:00,8.0,1.0,-100.00,SW,225,5.0,-999.0,71,-99.99,,,-99.99,0.000000,,2013-01-15 11:00:00,
2013-01-15 06:43:00,8.0,1.0,-100.00,SW,225,5.0,-999.0,71,-99.99,,,-99.99,0.000000,,2013-01-15 11:43:00,
2013-01-15 06:53:00,8.0,1.0,-100.00,SW,225,5.0,-999.0,71,-99.99,,,-99.99,0.000000,,2013-01-15 11:53:00,
2013-01-15 07:00:00,7.0,1.0,-100.00,SW,225,5.0,-999.0,73,-99.99,,,-99.99,0.000000,,2013-01-15 12:00:00,
2013-01-15 07:43:00,7.0,1.0,-100.00,SW,225,5.0,-999.0,73,-99.99,,,-99.99,0.000000,,2013-01-15 12:43:00,
2013-01-15 07:53:00,7.0,1.0,-100.00,SW,225,5.0,-999.0,73,-99.99,,,-99.99,0.000000,,2013-01-15 12:53:00,
2013-01-15 08:00:00,6.0,0.0,-100.00,SSW,202,4.0,-999.0,75,-99.99,,,-99.99,0.000000,,2013-01-15 13:00:00,
2013-01-15 08:33:00,6.0,0.0,-100.00,SSW,202,4.0,-999.0,75,-99.99,,,-99.99,0.000000,,2013-01-15 13:33:00,
2013-01-15 08:43:00,6.0,0.0,-100.00,SSW,202,4.0,-999.0,75,-99.99,,,-99.99,0.000000,,2013-01-15 13:43:00,
2013-01-15 08:53:00,6.0,0.0,-100.00,SSW,202,4.0,-999.0,75,-99.99,,,-99.99,0.000000,,2013-01-15 13:53:00,
2013-01-15 10:00:00,8.0,1.0,-100.00,SSW,202,6.0,-999.0,72,-99.99,,,-99.99,114.839996,,2013-01-15 15:00:00,
2013-01-15 10:33:00,8.0,1.0,-100.00,SSW,202,6.0,-999.0,72,-99.99,,,-99.99,114.839996,,2013-01-15 15:33:00,
2013-01-15 10:43:00,8.0,1.0,-100.00,SSW,202,6.0,-999.0,72,-99.99,,,-99.99,114.839996,,2013-01-15 15:43:00,
2013-01-15 10:53:00,8.0,1.0,-100.00,SSW,202,6.0,-999.0,72,-99.99,,,-99.99,114.839996,,2013-01-15 15:53:00,
2013-01-15 11:00:00,12.0,2.0,-100.00,SSW,202,8.0,-999.0,61,-99.99,,,-99.99,232.000000,,2013-01-15 16:00:00,
2013-01-15 11:43:00,12.0,2.0,-100.00,SSW,202,8.0,-999.0,61,-99.99,,,-99.99,232.000000,,2013-01-15 16:43:00,
2013-01-15 11:53:00,12.0,2.0,-100.00,SSW,202,8.0,-999.0,61,-99.99,,,-99.99,232.000000,,2013-01-15 16:53:00,
2013-01-15 15:00:00,25.0,10.0,-100.00,SW,225,11.0,-999.0,51,-99.99,,,-99.99,294.640015,,2013-01-15 20:00:00,
2013-01-15 15:44:00,25.0,10.0,-100.00,SW,225,11.0,-999.0,51,-99.99,,,-99.99,294.640015,,2013-01-15 20:44:00,
2013-01-15 15:53:00,25.0,10.0,-100.00,SW,225,11.0,-999.0,51,-99.99,,,-99.99,294.640015,,2013-01-15 20:53:00,
2013-01-15 16:00:00,26.0,9.0,-100.00,SW,225,9.0,-999.0,48,-99.99,,,-99.99,193.720001,,2013-01-15 21:00:00,
2013-01-15 16:43:00,26.0,9.0,-100.00,SW,225,9.0,-999.0,48,-99.99,,,-99.99,193.720001,,2013-01-15 21:43:00,
2013-01-15 16:53:00,26.0,9.0,-100.00,SW,225,9.0,-999.0,48,-99.99,,,-99.99,193.720001,,2013-01-15 21:53:00,
2013-01-15 18:00:00,24.0,10.0,-100.00,SW,225,4.0,-999.0,54,-99.99,,,-99.99,5.800000,,2013-01-15 23:00:00,
2013-01-15 18:43:00,24.0,10.0,-100.00,SW,225,4.0,-999.0,54,-99.99,,,-99.99,5.800000,,2013-01-15 23:43:00,
2013-01-15 18:53:00,24.0,10.0,-100.00,SW,225,4.0,-999.0,54,-99.99,,,-99.99,5.800000,,2013-01-15 23:53:00,
2013-01-15 19:00:00,22.0,11.0,-100.00,SSW,202,3.0,-999.0,60,-99.99,,,-99.99,0.000000,,2013-01-16 00:00:00,
2013-01-15 19:43:00,22.0,11.0,-100.00,SSW,202,3.0,-999.0,60,-99.99,,,-99.99,0.000000,,2013-01-16 00:43:00,
2013-01-15 19:53:00,22.0,11.0,-100.00,SSW,202,3.0,-999.0,60,-99.99,,,-99.99,0.000000,,2013-01-16 00:53:00,
2013-01-15 22:00:00,21.0,12.0,-100.00,SW,225,8.0,-999.0,66,-99.99,,,-99.99,0.000000,,2013-01-16 03:00:00,
2013-01-15 22:43:00,21.0,12.0,-100.00,SW,225,8.0,-999.0,66,-99.99,,,-99.99,0.000000,,2013-01-16 03:43:00,
2013-01-15 22:53:00,21.0,12.0,-100.00,SW,225,8.0,-999.0,66,-99.99,,,-99.99,0.000000,,2013-01-16 03:53:00,
2013-01-15 23:00:00,20.0,12.0,-100.00,SSW,202,8.0,-999.0,69,-99.99,,,-99.99,0.000000,,2013-01-16 04:00:00,
2013-01-15 23:42:00,20.0,12.0,-100.00,SSW,202,8.0,-999.0,69,-99.99,,,-99.99,0.000000,,2013-01-16 04:42:00,
2013-01-15 23:52:00,20.0,12.0,-100.00,SSW,202,8.0,-999.0,69,-99.99,,,-99.99,0.000000,,2013-01-16 04:52:00,